Time;durP1;ratioP1;P1;durP2;ratioP2;P2;SDS_P1;SDS_P2;PMS_P1;PMS_P2;Temp;Humidity;BMP_temperature;BMP_pressure;BME280_temperature;BME280_humidity;BME280_pressure;Samples;Min_cycle;Max_cycle;Signal;HPM_P1;HPM_P2
2022/03/06 00:00:00;;;;;;;24.48;16.05;;;;;;;1.00;75.63;99696.84;4968416;28;20296;-78
2022/03/06 00:02:27;;;;;;;24.75;15.88;;;;;;;1.06;75.25;99693.19;4972527;28;20283;-78
2022/03/06 00:04:54;;;;;;;22.25;14.88;;;;;;;1.04;74.57;99693.22;4969222;28;20642;-78
2022/03/06 00:07:21;;;;;;;24.42;16.35;;;;;;;1.27;73.70;99689.28;4972585;28;20208;-78
2022/03/06 00:09:48;;;;;;;23.40;15.38;;;;;;;1.08;75.02;99702.00;4968933;28;20670;-77
2022/03/06 00:12:15;;;;;;;25.20;15.65;;;;;;;1.16;74.71;99691.25;4967635;28;20309;-78
2022/03/06 00:14:42;;;;;;;23.42;15.30;;;;;;;1.07;75.51;99689.66;4966247;28;20195;-77
2022/03/06 00:17:08;;;;;;;24.40;15.57;;;;;;;1.08;75.18;99688.72;4972067;28;20623;-78
2022/03/06 00:19:35;;;;;;;25.27;16.67;;;;;;;0.97;76.23;99694.25;4967779;28;20320;-77
2022/03/06 00:22:02;;;;;;;23.08;15.35;;;;;;;1.09;75.64;99697.59;4968596;28;20200;-78
2022/03/06 00:24:28;;;;;;;22.38;14.10;;;;;;;1.34;72.85;99698.88;4968033;28;20188;-77
2022/03/06 00:26:57;;;;;;;23.75;15.05;;;;;;;1.28;73.42;99696.31;4966927;28;20241;-77
2022/03/06 00:29:23;;;;;;;21.35;13.70;;;;;;;1.28;73.29;99693.69;4969883;28;20191;-77
2022/03/06 00:31:50;;;;;;;22.63;14.02;;;;;;;1.36;72.04;99686.47;4974244;28;20275;-77
2022/03/06 00:34:18;;;;;;;22.90;14.55;;;;;;;1.37;72.78;99690.84;4970248;28;20195;-77
2022/03/06 00:36:45;;;;;;;18.58;13.23;;;;;;;1.19;72.69;99691.19;4973580;28;20190;-77
2022/03/06 00:39:12;;;;;;;22.67;14.40;;;;;;;1.08;73.80;99690.53;4970573;28;20224;-76
2022/03/06 00:41:38;;;;;;;22.40;14.00;;;;;;;1.02;74.44;99697.69;4972473;28;20660;-77
2022/03/06 00:44:06;;;;;;;24.15;15.60;;;;;;;0.60;77.36;99699.28;4970534;28;20198;-77
2022/03/06 00:46:33;;;;;;;19.02;13.52;;;;;;;0.74;76.65;99701.69;4970750;28;20180;-77
2022/03/06 00:49:00;;;;;;;22.85;14.65;;;;;;;0.98;74.95;99698.63;4970854;28;20196;-77
2022/03/06 00:51:26;;;;;;;21.88;15.35;;;;;;;0.65;77.05;99708.03;4967607;28;20185;-79
2022/03/06 00:53:53;;;;;;;20.77;12.63;;;;;;;0.89;75.86;99706.75;4974052;28;20199;-79
2022/03/06 00:56:20;;;;;;;24.83;15.15;;;;;;;1.01;75.25;99706.53;4970040;28;20191;-79
2022/03/06 00:58:46;;;;;;;22.73;15.18;;;;;;;0.62;77.29;99698.34;4970261;28;20225;-79
2022/03/06 01:01:15;;;;;;;21.27;14.38;;;;;;;0.71;76.88;99710.59;4969188;28;20207;-78
2022/03/06 01:03:42;;;;;;;23.17;14.85;;;;;;;0.69;77.04;99700.91;4975960;28;20188;-78
2022/03/06 01:06:09;;;;;;;20.90;13.05;;;;;;;0.81;75.87;99706.91;4975689;28;20192;-79
2022/03/06 01:08:35;;;;;;;21.10;13.20;;;;;;;0.62;76.81;99702.78;4975312;28;20219;-79
2022/03/06 01:11:02;;;;;;;20.48;14.07;;;;;;;0.57;77.47;99712.59;4969430;28;20204;-79
2022/03/06 01:13:29;;;;;;;22.77;14.00;;;;;;;0.83;75.53;99712.16;4969705;28;20188;-78
2022/03/06 01:15:55;;;;;;;21.60;13.05;;;;;;;0.80;75.31;99704.25;4969352;28;20196;-77
2022/03/06 01:18:24;;;;;;;23.67;13.30;;;;;;;0.78;75.33;99708.72;4971573;28;20225;-78
2022/03/06 01:20:51;;;;;;;22.27;13.48;;;;;;;0.76;75.52;99695.47;4969549;28;20210;-77
2022/03/06 01:23:18;;;;;;;20.73;13.40;;;;;;;0.50;77.81;99709.16;4965556;28;20193;-78
2022/03/06 01:25:44;;;;;;;21.35;12.77;;;;;;;0.73;76.05;99707.91;4966085;28;20690;-79
2022/03/06 01:28:11;;;;;;;22.83;13.73;;;;;;;0.82;75.48;99708.63;4972650;28;20212;-79
2022/03/06 01:30:37;;;;;;;21.85;13.38;;;;;;;0.72;76.21;99699.06;4965472;28;20207;-76
2022/03/06 01:33:04;;;;;;;20.73;13.75;;;;;;;0.74;76.12;99702.56;4974805;28;20196;-77
2022/03/06 01:35:32;;;;;;;24.63;14.63;;;;;;;0.39;77.77;99701.38;4969470;28;20283;-77
2022/03/06 01:37:59;;;;;;;23.00;13.55;;;;;;;0.28;79.29;99705.09;4974171;28;20523;-77
2022/03/06 01:40:26;;;;;;;21.25;13.80;;;;;;;0.26;79.20;99704.22;4967811;28;20192;-77
2022/03/06 01:42:53;;;;;;;19.98;14.38;;;;;;;0.33;78.85;99701.44;4970295;28;20746;-77
2022/03/06 01:45:21;;;;;;;19.20;13.32;;;;;;;0.30;79.06;99700.63;4969061;28;20275;-77
2022/03/06 01:47:51;;;;;;;22.42;14.45;;;;;;;-0.03;81.44;99705.50;4957283;28;20212;-78
2022/03/06 01:50:20;;;;;;;23.60;14.38;;;;;;;-0.09;83.13;99702.91;4967012;28;20564;-77
2022/03/06 01:52:50;;;;;;;21.02;14.18;;;;;;;-0.09;83.28;99687.94;4974394;28;20545;-77
2022/03/06 01:55:18;;;;;;;21.85;13.70;;;;;;;-0.18;84.11;99693.34;4969803;28;20285;-77
2022/03/06 01:57:47;;;;;;;27.25;14.15;;;;;;;-0.32;84.36;99690.00;4963978;28;20651;-78
2022/03/06 02:00:18;;;;;;;22.30;14.52;;;;;;;-0.46;86.16;99692.81;4968070;28;20196;-77
2022/03/06 02:02:45;;;;;;;22.00;15.65;;;;;;;-0.24;85.47;99699.59;4967402;28;20207;-76
2022/03/06 02:05:12;;;;;;;21.13;13.48;;;;;;;-0.15;84.49;99697.72;4967045;28;20200;-78
2022/03/06 02:07:39;;;;;;;27.05;14.80;;;;;;;-0.23;84.36;99692.50;4974480;28;20218;-76
2022/03/06 02:10:09;;;;;;;21.17;12.90;;;;;;;-0.16;83.86;99686.25;4961045;28;20184;-79
2022/03/06 02:12:37;;;;;;;22.13;14.00;;;;;;;-0.06;83.04;99687.03;4973939;28;20291;-79
2022/03/06 02:15:06;;;;;;;20.40;13.23;;;;;;;-0.11;82.87;99695.03;4973817;28;20247;-78
2022/03/06 02:17:33;;;;;;;22.88;14.30;;;;;;;0.02;82.24;99685.13;4971004;28;20198;-79
2022/03/06 02:20:02;;;;;;;20.17;13.23;;;;;;;0.12;81.03;99700.00;4973884;28;20232;-78
2022/03/06 02:22:31;;;;;;;21.95;13.65;;;;;;;0.03;80.98;99697.47;4974558;28;20203;-79
2022/03/06 02:25:00;;;;;;;20.25;13.25;;;;;;;0.11;80.92;99703.53;4966623;28;20287;-78
2022/03/06 02:27:27;;;;;;;17.67;12.63;;;;;;;0.06;80.75;99697.44;4973612;28;20298;-78
2022/03/06 02:29:54;;;;;;;21.98;12.88;;;;;;;0.15;79.75;99694.66;4972917;28;20252;-78
2022/03/06 02:32:23;;;;;;;18.85;12.73;;;;;;;-0.19;81.29;99701.31;4973151;28;20287;-78
2022/03/06 02:34:52;;;;;;;22.67;13.60;;;;;;;-0.15;81.94;99695.09;4972678;28;20200;-78
2022/03/06 02:37:21;;;;;;;19.65;13.35;;;;;;;-0.22;82.79;99691.63;4973802;28;20282;-78
2022/03/06 02:39:49;;;;;;;20.20;13.50;;;;;;;-0.45;84.02;99691.94;4972072;28;20227;-78
2022/03/06 02:42:27;;;;;;;19.63;13.82;;;;;;;-0.70;86.15;99689.56;4966774;28;20568;-77
2022/03/06 02:44:54;;;;;;;19.52;12.85;;;;;;;-0.80;87.69;99694.97;4971705;28;20289;-78
2022/03/06 02:47:21;;;;;;;18.77;12.77;;;;;;;-0.74;87.95;99695.78;4972212;28;20222;-78
2022/03/06 02:49:48;;;;;;;21.10;12.85;;;;;;;-0.72;87.80;99690.47;4971900;28;20189;-77
2022/03/06 02:52:15;;;;;;;20.40;12.93;;;;;;;-0.69;88.17;99696.59;4973707;28;20194;-77
2022/03/06 02:54:42;;;;;;;21.67;12.88;;;;;;;-0.53;87.09;99692.00;4971517;28;20668;-77
2022/03/06 02:57:10;;;;;;;20.02;11.73;;;;;;;-0.41;86.28;99685.69;4973952;28;20271;-77
2022/03/06 02:59:38;;;;;;;22.98;13.55;;;;;;;-0.40;86.36;99679.50;4964081;28;20217;-78
2022/03/06 03:02:05;;;;;;;19.63;12.45;;;;;;;-0.51;87.15;99692.84;4971577;28;20192;-78
2022/03/06 03:04:33;;;;;;;22.30;13.18;;;;;;;-0.39;86.70;99683.91;4969219;28;20203;-77
2022/03/06 03:06:59;;;;;;;19.88;12.32;;;;;;;-0.36;86.41;99686.53;4970963;28;20192;-77
2022/03/06 03:09:26;;;;;;;21.48;14.10;;;;;;;-0.43;85.53;99685.72;4970446;28;20226;-78
2022/03/06 03:11:54;;;;;;;22.30;13.25;;;;;;;-0.81;87.98;99691.44;4973278;28;20192;-78
2022/03/06 03:14:23;;;;;;;22.30;13.57;;;;;;;-1.08;90.99;99697.88;4972825;28;20203;-77
2022/03/06 03:16:50;;;;;;;20.52;13.07;;;;;;;-0.98;91.40;99703.94;4964207;28;20195;-76
2022/03/06 03:19:17;;;;;;;22.33;13.07;;;;;;;-0.73;89.46;99701.94;4970092;28;20230;-79
2022/03/06 03:21:44;;;;;;;19.58;13.60;;;;;;;-0.57;88.39;99700.00;4961786;28;20521;-78
2022/03/06 03:24:11;;;;;;;23.10;13.85;;;;;;;-0.55;87.78;99700.84;4969912;28;20192;-78
2022/03/06 03:26:38;;;;;;;22.83;12.65;;;;;;;-0.67;88.71;99694.81;4970369;28;20907;-77
2022/03/06 03:29:04;;;;;;;22.75;13.10;;;;;;;-0.47;87.64;99697.22;4969989;28;20212;-78
2022/03/06 03:31:32;;;;;;;20.80;13.27;;;;;;;-0.62;87.55;99700.03;4968409;28;20284;-77
2022/03/06 03:33:59;;;;;;;22.02;13.48;;;;;;;-0.76;89.67;99708.13;4973119;28;20207;-78
2022/03/06 03:36:26;;;;;;;21.95;13.65;;;;;;;-0.92;90.38;99709.19;4969582;28;20188;-77
2022/03/06 03:38:53;;;;;;;21.42;12.48;;;;;;;-0.86;90.35;99706.44;4972619;28;20184;-78
2022/03/06 03:41:19;;;;;;;21.55;12.93;;;;;;;-0.79;89.39;99704.63;4969306;28;20203;-78
2022/03/06 03:43:46;;;;;;;23.25;13.77;;;;;;;-0.77;89.46;99716.97;4968346;28;20261;-79
2022/03/06 03:46:12;;;;;;;17.98;12.70;;;;;;;-0.72;88.39;99715.16;4968489;28;20202;-78
2022/03/06 03:48:40;;;;;;;19.48;12.38;;;;;;;-0.57;87.65;99715.84;4969340;28;20312;-78
2022/03/06 03:51:07;;;;;;;18.70;11.98;;;;;;;-0.43;86.48;99713.91;4960850;28;20638;-79
2022/03/06 03:53:34;;;;;;;18.00;12.38;;;;;;;-0.47;85.52;99710.44;4971772;28;20287;-78
2022/03/06 03:56:01;;;;;;;17.63;11.75;;;;;;;-0.28;84.53;99726.09;4968259;28;20196;-77
2022/03/06 03:58:27;;;;;;;16.52;11.07;;;;;;;-0.55;85.38;99717.59;4968551;28;20191;-78
2022/03/06 04:00:54;;;;;;;16.85;12.88;;;;;;;-0.75;88.06;99723.09;4972484;28;20206;-78
2022/03/06 04:03:20;;;;;;;20.33;11.48;;;;;;;-0.81;88.51;99724.91;4966516;28;20556;-77
2022/03/06 04:05:49;;;;;;;18.35;12.60;;;;;;;-0.79;89.21;99718.75;4964853;28;20220;-78
2022/03/06 04:08:15;;;;;;;18.55;12.10;;;;;;;-0.77;88.90;99727.53;4970708;28;20233;-76
2022/03/06 04:10:42;;;;;;;16.80;11.43;;;;;;;-0.78;88.87;99728.41;4969156;28;20220;-78
2022/03/06 04:13:09;;;;;;;18.27;11.68;;;;;;;-0.80;89.70;99734.63;4964720;28;20302;-79
2022/03/06 04:15:36;;;;;;;20.13;12.13;;;;;;;-0.73;88.65;99731.00;4967393;28;20220;-78
2022/03/06 04:18:03;;;;;;;18.63;11.70;;;;;;;-0.47;86.76;99742.19;4966967;28;20202;-78
2022/03/06 04:20:30;;;;;;;15.50;10.00;;;;;;;-0.30;85.21;99743.78;4964851;28;20194;-78
2022/03/06 04:22:58;;;;;;;17.98;11.68;;;;;;;-0.48;84.94;99748.38;4965881;28;20187;-79
2022/03/06 04:25:25;;;;;;;16.35;11.50;;;;;;;-0.48;85.08;99752.78;4969550;28;20196;-79
2022/03/06 04:27:52;;;;;;;19.83;11.88;;;;;;;-0.39;84.06;99751.81;4967074;28;20567;-78
2022/03/06 04:30:19;;;;;;;14.55;10.88;;;;;;;-0.49;85.30;99751.06;4966769;28;20195;-78
2022/03/06 04:32:45;;;;;;;15.30;11.45;;;;;;;-0.44;84.78;99752.72;4966801;28;20239;-78
2022/03/06 04:35:12;;;;;;;19.92;11.77;;;;;;;-0.71;86.01;99753.03;4966523;28;20188;-77
2022/03/06 04:37:39;;;;;;;20.25;11.02;;;;;;;-0.71;85.32;99750.38;4966766;28;20192;-78
2022/03/06 04:40:08;;;;;;;16.75;11.70;;;;;;;-0.69;86.44;99754.75;4963138;28;20654;-78
2022/03/06 04:42:35;;;;;;;17.80;10.95;;;;;;;-0.83;86.59;99751.38;4966081;28;20732;-78
2022/03/06 04:45:01;;;;;;;16.80;11.07;;;;;;;-1.08;88.63;99756.03;4965234;28;20282;-78
2022/03/06 04:47:28;;;;;;;15.18;10.10;;;;;;;-0.95;89.50;99757.66;4966213;28;20184;-78
2022/03/06 04:49:55;;;;;;;19.38;11.73;;;;;;;-1.15;90.76;99755.19;4965126;28;20219;-78
2022/03/06 04:52:22;;;;;;;18.42;12.00;;;;;;;-1.21;91.52;99763.16;4966714;28;20241;-78
2022/03/06 04:54:49;;;;;;;18.60;11.20;;;;;;;-1.15;91.12;99763.13;4964855;28;20598;-78
2022/03/06 04:57:16;;;;;;;20.45;11.10;;;;;;;-1.12;91.32;99759.56;4968750;28;20200;-77
2022/03/06 04:59:43;;;;;;;17.50;10.55;;;;;;;-1.08;91.36;99762.19;4962807;28;20190;-77
2022/03/06 05:02:10;;;;;;;19.73;10.18;;;;;;;-0.97;90.19;99761.19;4969336;28;20198;-79
2022/03/06 05:04:36;;;;;;;16.52;10.95;;;;;;;-1.02;89.73;99766.50;4962134;28;20204;-76
2022/03/06 05:07:03;;;;;;;14.77;10.00;;;;;;;-0.90;89.17;99770.84;4971735;28;20193;-79
2022/03/06 05:09:30;;;;;;;15.35;10.52;;;;;;;-0.89;88.10;99757.59;4958981;28;20208;-79
2022/03/06 05:11:57;;;;;;;16.08;10.27;;;;;;;-0.76;86.09;99766.28;4963794;28;20196;-78
2022/03/06 05:14:25;;;;;;;19.85;10.57;;;;;;;-0.70;85.86;99763.59;4961489;28;20191;-76
2022/03/06 05:16:51;;;;;;;16.10;10.40;;;;;;;-0.71;83.76;99760.97;4970836;28;20197;-78
2022/03/06 05:19:18;;;;;;;17.20;10.02;;;;;;;-0.86;85.99;99773.44;4969627;28;20238;-78
2022/03/06 05:21:44;;;;;;;15.85;9.52;;;;;;;-0.67;85.04;99775.91;4967832;28;20198;-77
2022/03/06 05:24:11;;;;;;;18.13;10.77;;;;;;;-0.60;83.95;99776.72;4967796;28;20197;-77
2022/03/06 05:26:38;;;;;;;17.95;10.30;;;;;;;-0.54;82.21;99774.91;4967450;28;20280;-77
2022/03/06 05:29:04;;;;;;;16.50;10.93;;;;;;;-0.69;83.53;99770.63;4967390;28;20204;-77
2022/03/06 05:31:32;;;;;;;13.73;9.80;;;;;;;-0.76;84.18;99773.34;4967622;28;20193;-79
2022/03/06 05:33:59;;;;;;;15.27;10.48;;;;;;;-0.61;82.85;99774.97;4966784;28;20195;-79
2022/03/06 05:36:26;;;;;;;14.93;10.27;;;;;;;-0.64;82.28;99779.38;4975279;28;20194;-78
2022/03/06 05:38:52;;;;;;;19.35;11.75;;;;;;;-0.60;82.61;99779.38;4966624;28;20194;-78
2022/03/06 05:41:19;;;;;;;17.15;10.10;;;;;;;-0.63;83.32;99777.66;4972683;28;20247;-78
2022/03/06 05:43:45;;;;;;;19.58;10.77;;;;;;;-0.73;82.66;99783.91;4974341;28;20196;-79
2022/03/06 05:46:12;;;;;;;14.57;10.57;;;;;;;-0.68;81.25;99785.63;4975317;28;20659;-77
2022/03/06 05:48:40;;;;;;;18.35;11.98;;;;;;;-0.52;80.97;99783.72;4974168;28;20291;-77
2022/03/06 05:51:07;;;;;;;19.15;10.85;;;;;;;-0.72;81.97;99789.19;4974909;28;20196;-78
2022/03/06 05:53:33;;;;;;;17.17;11.30;;;;;;;-0.85;83.27;99795.47;4973881;28;20230;-77
2022/03/06 05:56:00;;;;;;;17.05;10.20;;;;;;;-0.80;83.01;99796.28;4975138;28;20618;-77
2022/03/06 05:58:27;;;;;;;18.45;10.95;;;;;;;-0.81;83.68;99791.00;4969226;28;20279;-78
2022/03/06 06:00:53;;;;;;;52.67;15.23;;;;;;;-0.52;82.54;99796.03;4970620;28;20549;-77
2022/03/06 06:03:20;;;;;;;16.38;10.43;;;;;;;-0.38;81.29;99803.84;4973669;28;20654;-77
2022/03/06 06:05:48;;;;;;;23.10;11.15;;;;;;;-0.32;80.89;99807.28;4968723;28;20549;-78
2022/03/06 06:08:14;;;;;;;20.70;11.75;;;;;;;-0.38;80.46;99812.66;4970244;28;20196;-77
2022/03/06 06:10:41;;;;;;;16.25;9.95;;;;;;;-0.35;79.76;99814.41;4973147;28;20200;-77
2022/03/06 06:13:09;;;;;;;17.45;9.95;;;;;;;-0.24;79.36;99816.03;4973321;28;20734;-77
2022/03/06 06:15:37;;;;;;;16.35;11.52;;;;;;;-0.11;79.19;99813.25;4970667;28;20199;-77
2022/03/06 06:18:04;;;;;;;15.57;9.85;;;;;;;-0.27;79.83;99817.81;4972968;28;20199;-78
2022/03/06 06:20:30;;;;;;;18.33;11.65;;;;;;;-0.16;78.58;99812.41;4971820;28;20188;-77
2022/03/06 06:22:58;;;;;;;14.40;10.77;;;;;;;-0.18;77.81;99814.19;4971681;28;20240;-78
2022/03/06 06:25:25;;;;;;;14.40;10.30;;;;;;;-0.30;79.75;99815.22;4972273;28;20271;-77
2022/03/06 06:27:51;;;;;;;17.65;10.88;;;;;;;-0.51;81.00;99818.97;4973227;28;20715;-78
2022/03/06 06:30:18;;;;;;;17.13;11.23;;;;;;;-0.23;80.10;99823.09;4968223;28;20240;-77
2022/03/06 06:32:45;;;;;;;16.98;10.90;;;;;;;-0.18;79.87;99824.78;4971907;28;20233;-77
2022/03/06 06:35:11;;;;;;;16.25;10.68;;;;;;;-0.05;78.54;99827.28;4974492;28;20192;-79
2022/03/06 06:37:38;;;;;;;16.40;10.23;;;;;;;0.19;77.30;99826.13;4969219;28;20321;-78
2022/03/06 06:40:08;;;;;;;16.52;10.85;;;;;;;0.34;75.09;99832.09;4966362;28;20673;-77
2022/03/06 06:42:34;;;;;;;22.08;10.73;;;;;;;0.56;73.64;99830.06;4963862;28;20198;-78
2022/03/06 06:45:01;;;;;;;19.25;11.73;;;;;;;0.54;72.79;99830.09;4968771;28;20267;-77
2022/03/06 06:47:27;;;;;;;17.90;10.57;;;;;;;0.60;73.31;99831.78;4971410;28;20698;-78
2022/03/06 06:49:54;;;;;;;17.08;11.32;;;;;;;0.72;72.48;99831.59;4972511;28;20204;-77
2022/03/06 06:52:21;;;;;;;19.63;10.90;;;;;;;0.73;71.68;99825.41;4970012;28;20218;-77
2022/03/06 06:54:48;;;;;;;16.58;10.63;;;;;;;1.04;69.84;99833.78;4963361;28;20272;-77
2022/03/06 06:57:16;;;;;;;21.13;10.98;;;;;;;1.20;68.58;99841.50;4962978;28;20640;-78
2022/03/06 06:59:42;;;;;;;16.33;10.65;;;;;;;1.30;68.41;99835.13;4971169;28;20192;-79
2022/03/06 07:02:09;;;;;;;13.80;10.50;;;;;;;1.28;67.78;99836.94;4968535;28;20215;-78
2022/03/06 07:04:35;;;;;;;14.77;10.40;;;;;;;1.59;65.64;99833.75;4970642;28;20192;-79
2022/03/06 07:07:02;;;;;;;18.60;10.93;;;;;;;1.69;64.83;99840.63;4970884;28;20291;-78
2022/03/06 07:09:28;;;;;;;16.30;10.23;;;;;;;1.66;64.46;99844.22;4967418;28;20204;-79
2022/03/06 07:11:55;;;;;;;14.73;10.52;;;;;;;1.70;64.99;99831.78;4971518;28;20202;-79
2022/03/06 07:14:23;;;;;;;16.48;11.02;;;;;;;1.72;64.48;99840.59;4973378;28;20287;-79
2022/03/06 07:16:51;;;;;;;18.40;10.70;;;;;;;1.85;63.70;99842.13;4969438;28;20215;-80
2022/03/06 07:19:17;;;;;;;17.92;11.35;;;;;;;1.67;64.76;99839.78;4973807;28;20227;-79
2022/03/06 07:21:45;;;;;;;15.93;9.65;;;;;;;1.43;64.61;99841.97;4965265;28;20292;-78
2022/03/06 07:24:11;;;;;;;13.27;9.73;;;;;;;1.68;63.48;99836.25;4973093;28;20207;-76
2022/03/06 07:26:38;;;;;;;14.30;9.63;;;;;;;1.41;64.15;99835.81;4968693;28;20246;-77
2022/03/06 07:29:05;;;;;;;12.55;9.68;;;;;;;1.49;64.33;99834.81;4965256;28;20212;-77
2022/03/06 07:31:33;;;;;;;13.95;9.82;;;;;;;1.45;62.53;99844.63;4956137;28;20601;-78
2022/03/06 07:33:59;;;;;;;16.30;10.38;;;;;;;1.47;63.13;99837.50;4972744;28;20192;-78
2022/03/06 07:36:26;;;;;;;15.07;9.88;;;;;;;1.56;61.82;99839.09;4966480;28;20196;-78
2022/03/06 07:38:53;;;;;;;11.68;8.60;;;;;;;1.65;60.97;99830.97;4970775;28;20711;-78
2022/03/06 07:41:19;;;;;;;13.50;8.93;;;;;;;1.52;61.37;99840.97;4969306;28;20235;-78
2022/03/06 07:43:46;;;;;;;15.75;10.75;;;;;;;1.57;61.06;99830.25;4967780;28;20508;-79
2022/03/06 07:46:13;;;;;;;14.70;9.88;;;;;;;1.41;60.95;99849.09;4970533;28;20283;-78
2022/03/06 07:48:41;;;;;;;14.23;9.15;;;;;;;1.39;61.95;99847.38;4976149;28;20554;-77
2022/03/06 07:51:07;;;;;;;17.30;10.35;;;;;;;1.45;61.43;99852.59;4973133;28;20295;-78
2022/03/06 07:53:34;;;;;;;14.25;9.73;;;;;;;1.61;61.13;99847.88;4968021;28;20197;-78
2022/03/06 07:56:01;;;;;;;18.08;9.80;;;;;;;1.71;60.52;99841.50;4969990;28;20283;-78
2022/03/06 07:58:27;;;;;;;13.50;9.48;;;;;;;1.77;59.98;99841.38;4972323;28;20224;-77
2022/03/06 08:00:54;;;;;;;17.77;11.00;;;;;;;1.71;59.49;99841.50;4966860;28;20193;-77
2022/03/06 08:03:20;;;;;;;14.02;9.75;;;;;;;1.70;59.60;99849.47;4960975;28;20192;-77
2022/03/06 08:05:48;;;;;;;14.65;8.88;;;;;;;1.65;59.64;99854.88;4972360;28;20188;-78
2022/03/06 08:08:15;;;;;;;15.65;9.52;;;;;;;1.74;59.31;99853.81;4971465;28;20196;-80
2022/03/06 08:10:42;;;;;;;17.60;9.75;;;;;;;1.79;58.63;99866.13;4966518;28;20319;-77
2022/03/06 08:13:09;;;;;;;15.18;9.93;;;;;;;1.99;57.93;99862.22;4966147;28;20548;-77
2022/03/06 08:15:36;;;;;;;13.25;9.13;;;;;;;2.12;57.49;99862.88;4971159;28;20188;-79
2022/03/06 08:18:02;;;;;;;14.90;9.95;;;;;;;2.12;57.10;99862.88;4965561;28;20227;-78
2022/03/06 08:20:29;;;;;;;13.05;8.90;;;;;;;2.25;56.61;99861.72;4966239;28;20268;-78
2022/03/06 08:22:57;;;;;;;15.35;9.98;;;;;;;2.33;55.96;99873.09;4969889;28;20192;-77
2022/03/06 08:25:24;;;;;;;21.25;10.77;;;;;;;2.27;55.88;99867.88;4972805;28;20542;-77
2022/03/06 08:27:50;;;;;;;14.80;8.48;;;;;;;2.32;55.54;99873.97;4982733;28;20188;-78
2022/03/06 08:30:17;;;;;;;12.15;9.80;;;;;;;2.26;56.13;99875.00;4961344;28;20295;-79
2022/03/06 08:32:44;;;;;;;14.20;9.60;;;;;;;2.39;55.82;99882.69;4969865;28;20282;-78
2022/03/06 08:35:10;;;;;;;21.05;11.07;;;;;;;2.64;54.68;99886.59;4964158;28;20231;-78
2022/03/06 08:37:38;;;;;;;13.63;9.73;;;;;;;2.72;54.22;99878.47;4964865;28;20293;-78
2022/03/06 08:40:08;;;;;;;14.50;10.52;;;;;;;2.71;54.16;99877.59;4962041;28;20199;-79
2022/03/06 08:42:35;;;;;;;15.82;10.18;;;;;;;2.95;54.03;99880.63;4970852;28;20271;-79
2022/03/06 08:45:01;;;;;;;19.83;10.95;;;;;;;2.90;54.09;99875.41;4969087;28;20206;-77
2022/03/06 08:47:28;;;;;;;14.20;10.02;;;;;;;3.03;53.33;99875.09;4962019;28;20279;-79
2022/03/06 08:49:55;;;;;;;15.27;11.25;;;;;;;3.10;53.78;99879.41;4964148;28;20251;-78
2022/03/06 08:52:21;;;;;;;14.80;11.00;;;;;;;3.32;52.95;99871.75;4961600;28;20275;-78
2022/03/06 08:54:48;;;;;;;19.73;12.18;;;;;;;3.21;52.79;99868.47;4971809;28;20192;-79
2022/03/06 08:57:16;;;;;;;16.05;10.63;;;;;;;3.44;52.45;99875.94;4969327;28;20284;-78
2022/03/06 08:59:42;;;;;;;14.15;10.27;;;;;;;3.43;52.33;99874.19;4968606;28;20192;-79
2022/03/06 09:02:09;;;;;;;13.73;9.57;;;;;;;3.55;52.40;99874.75;4966707;28;20211;-78
2022/03/06 09:04:36;;;;;;;18.05;9.93;;;;;;;3.69;51.86;99868.22;4973311;28;20209;-79
2022/03/06 09:07:02;;;;;;;15.73;9.85;;;;;;;3.90;51.70;99869.44;4968362;28;20284;-78
2022/03/06 09:09:29;;;;;;;20.08;11.50;;;;;;;3.82;51.58;99874.97;4975817;28;20571;-78
2022/03/06 09:11:56;;;;;;;15.40;11.10;;;;;;;3.67;51.58;99873.56;4970969;28;20233;-77
2022/03/06 09:14:24;;;;;;;14.50;10.90;;;;;;;3.66;51.25;99868.25;4965264;28;20206;-78
2022/03/06 09:16:50;;;;;;;18.02;11.60;;;;;;;3.82;51.08;99876.72;4967408;28;20189;-77
2022/03/06 09:19:17;;;;;;;15.27;11.15;;;;;;;3.78;50.62;99875.97;4970415;28;20682;-79
2022/03/06 09:21:44;;;;;;;15.50;9.55;;;;;;;3.72;50.28;99870.78;4970040;28;20288;-77
2022/03/06 09:24:11;;;;;;;16.60;9.57;;;;;;;4.04;49.82;99879.72;4969490;28;20204;-78
2022/03/06 09:26:38;;;;;;;13.90;10.05;;;;;;;4.26;48.91;99870.22;4965464;28;20198;-79
2022/03/06 09:29:05;;;;;;;12.65;10.30;;;;;;;4.42;48.10;99875.97;4976909;28;20289;-77
2022/03/06 09:31:33;;;;;;;16.55;10.00;;;;;;;4.25;48.05;99868.47;4970568;28;20292;-78
2022/03/06 09:34:00;;;;;;;14.00;9.60;;;;;;;4.29;47.72;99867.44;4973956;28;20551;-78
2022/03/06 09:36:26;;;;;;;12.80;9.32;;;;;;;4.55;47.08;99869.38;4965561;28;20285;-78
2022/03/06 09:38:53;;;;;;;12.80;10.10;;;;;;;4.30;47.23;99868.34;4973358;28;20193;-78
2022/03/06 09:41:47;;;;;;;15.20;10.52;;;;;;;4.38;47.43;99866.31;4975384;28;20253;-78
2022/03/06 09:44:18;;;;;;;15.57;10.23;;;;;;;4.44;47.14;99865.28;4969234;28;20600;-78
2022/03/06 09:46:46;;;;;;;15.27;10.30;;;;;;;4.65;46.85;99864.63;4971089;28;20404;-78
2022/03/06 09:49:13;;;;;;;12.52;9.38;;;;;;;4.69;46.58;99863.63;4974247;28;20201;-77
2022/03/06 09:51:41;;;;;;;16.67;10.35;;;;;;;4.70;46.20;99862.69;4969881;28;20688;-80
2022/03/06 09:54:09;;;;;;;14.95;10.13;;;;;;;4.77;46.18;99864.28;4974485;28;20607;-79
2022/03/06 09:56:36;;;;;;;11.40;9.35;;;;;;;5.14;45.29;99872.97;4971789;28;20193;-79
2022/03/06 09:59:03;;;;;;;13.50;9.25;;;;;;;5.19;44.32;99868.34;4974477;28;20201;-80
2022/03/06 10:01:29;;;;;;;12.90;9.27;;;;;;;5.25;43.76;99867.28;4972480;28;20195;-79
2022/03/06 10:03:57;;;;;;;13.95;10.00;;;;;;;5.42;43.45;99865.78;4972793;28;20200;-79
2022/03/06 10:06:24;;;;;;;12.40;8.73;;;;;;;5.16;44.06;99866.66;4974492;28;20210;-79
2022/03/06 10:09:03;;;;;;;14.00;9.23;;;;;;;5.28;43.93;99857.34;4962345;28;20521;-80
2022/03/06 10:11:31;;;;;;;13.93;9.75;;;;;;;5.25;43.80;99861.94;4967949;28;20731;-80
2022/03/06 10:13:58;;;;;;;13.95;9.52;;;;;;;5.50;42.96;99860.22;4964448;28;20197;-80
2022/03/06 10:16:24;;;;;;;13.35;8.80;;;;;;;5.58;42.29;99860.81;4973616;28;20713;-79
2022/03/06 10:18:53;;;;;;;15.23;10.00;;;;;;;5.50;42.42;99856.69;4970256;28;20224;-79
2022/03/06 10:21:23;;;;;;;14.35;9.95;;;;;;;6.03;40.82;99857.50;4975147;28;20222;-80
2022/03/06 10:23:52;;;;;;;11.65;9.02;;;;;;;5.92;40.96;99856.13;4965429;28;20706;-79
2022/03/06 10:26:20;;;;;;;14.00;9.63;;;;;;;6.00;39.84;99860.31;4968777;28;20208;-79
2022/03/06 10:28:53;;;;;;;12.98;9.18;;;;;;;6.15;38.38;99852.66;4974132;28;20299;-78
2022/03/06 10:31:21;;;;;;;11.02;8.60;;;;;;;6.34;38.04;99852.88;4956631;29;20708;-78
2022/03/06 10:33:57;;;;;;;12.90;7.93;;;;;;;6.31;39.08;99867.25;4967705;28;20195;-79
2022/03/06 10:36:39;;;;;;;10.07;8.05;;;;;;;6.36;38.66;99857.25;4976328;28;20250;-78
2022/03/06 10:39:15;;;;;;;13.07;8.50;;;;;;;6.13;38.88;99865.22;4967814;28;20206;-78
2022/03/06 10:41:57;;;;;;;12.20;9.10;;;;;;;6.35;38.63;99863.50;4975705;28;20689;-79
2022/03/06 10:44:47;;;;;;;12.98;9.60;;;;;;;6.58;39.21;99868.03;4976742;28;20200;-79
2022/03/06 10:47:13;;;;;;;15.05;8.90;;;;;;;6.65;37.92;99872.22;4974560;28;20258;-79
2022/03/06 11:20:15;;;;;;;11.85;8.65;;;;;;;6.55;37.94;99861.91;4729529;30;20242;-80
2022/03/06 11:22:51;;;;;;;14.02;9.15;;;;;;;6.37;38.17;99861.66;4784860;30;20675;-79
2022/03/06 11:25:25;;;;;;;12.95;9.35;;;;;;;6.72;37.93;99854.13;4783241;30;20213;-79
2022/03/06 11:28:03;;;;;;;12.23;8.90;;;;;;;6.48;37.78;99856.78;4880160;29;20199;-79
2022/03/06 11:30:30;;;;;;;12.15;9.25;;;;;;;6.50;37.88;99855.88;4910485;29;20747;-79
2022/03/06 11:33:03;;;;;;;12.02;8.63;;;;;;;6.89;37.30;99850.78;4912939;29;20217;-78
2022/03/06 11:35:34;;;;;;;13.52;8.57;;;;;;;7.05;37.15;99841.19;4911561;29;20228;-79
2022/03/06 11:38:01;;;;;;;12.80;8.45;;;;;;;6.66;37.70;99843.66;4910743;29;20266;-79
2022/03/06 11:40:47;;;;;;;13.38;9.02;;;;;;;6.58;37.96;99841.28;4910437;29;20218;-79
2022/03/06 11:43:38;;;;;;;10.60;8.85;;;;;;;6.39;38.35;99841.06;4911222;29;20241;-79
2022/03/06 11:46:08;;;;;;;11.85;9.15;;;;;;;6.24;38.82;99836.28;4907575;29;20227;-79
2022/03/06 11:49:03;;;;;;;13.35;8.43;;;;;;;6.57;38.50;99834.16;4904437;29;20236;-78
2022/03/06 11:51:33;;;;;;;14.57;10.25;;;;;;;6.99;37.87;99841.47;4977034;28;20624;-77
2022/03/06 11:54:01;;;;;;;12.88;10.02;;;;;;;7.23;37.17;99838.72;4979220;28;20211;-78
2022/03/06 11:56:47;;;;;;;9.93;8.88;;;;;;;6.53;37.50;99828.97;4986195;28;20758;-78